Delphos, Kansas
Current Conditions -  °F | °C
As of 2:55 AM on Friday 24 Oct 2014 (Local Time) from KCNK Reporting Station
Haze Haze  
Wind Chill: 60°   Ceiling: Unl
Heat Index: 60°   Visibility: 5mi
Dew Point: 59°   Wind: 9mph
Humidity: 96%   Direction: 200°SSW
Pressure: 30.02"   Gusts: NA
Location:  39.27°N, 97.77°W
Report Text: KCNK 240755Z AUTO 20008KT 5SM BR CLR 16/15 A3002 RMK AO2 SLP155 T01560150
Loading
Personal Weather Stations






























Interactive Weather Map
Tropical Storm Tracking
New forecast layout! Learn more

10-Day Weather Forecast

Advertisements
Track Severe Weather on mobile